Time;durP1;ratioP1;P1;durP2;ratioP2;P2;SDS_P1;SDS_P2;PMS_P1;PMS_P2;Temp;Humidity;BMP_temperature;BMP_pressure;BME280_temperature;BME280_humidity;BME280_pressure;Samples;Min_cycle;Max_cycle;Signal;HPM_P1;HPM_P2
2023/08/07 00:01:03;;;;;;;0.68;0.65;;;;;;;32.19;32.98;101422.13;5116628;27;20089;-76
2023/08/07 00:03:33;;;;;;;0.88;0.80;;;;;;;32.14;34.45;101422.38;5124511;27;20176;-76
2023/08/07 00:06:01;;;;;;;2.00;1.00;;;;;;;32.19;34.60;101416.78;5125035;27;20058;-76
2023/08/07 00:08:31;;;;;;;2.45;1.05;;;;;;;32.19;34.03;101414.09;5127605;27;20126;-76
2023/08/07 00:11:07;;;;;;;3.47;1.10;;;;;;;31.98;34.39;101405.34;5117383;27;20051;-75
2023/08/07 00:13:36;;;;;;;2.10;1.33;;;;;;;31.86;34.25;101417.47;5117252;27;20048;-72
2023/08/07 00:16:05;;;;;;;1.48;1.27;;;;;;;31.77;35.00;101401.88;5111042;27;20355;-74
2023/08/07 00:18:35;;;;;;;1.20;1.05;;;;;;;31.71;35.90;101404.88;5126539;27;20047;-73
2023/08/07 00:21:11;;;;;;;3.20;1.17;;;;;;;31.72;35.82;101398.56;5126491;27;20053;-76
2023/08/07 00:23:40;;;;;;;3.35;1.13;;;;;;;31.69;35.89;101401.41;5111228;27;20047;-77
2023/08/07 00:26:09;;;;;;;1.00;0.80;;;;;;;31.59;35.18;101398.31;5118771;27;20043;-77
2023/08/07 00:28:37;;;;;;;2.53;0.88;;;;;;;31.62;35.04;101395.47;5115597;27;20052;-79
2023/08/07 00:31:06;;;;;;;3.92;1.00;;;;;;;31.67;35.73;101389.91;5112709;27;20703;-77
2023/08/07 00:33:36;;;;;;;1.60;0.70;;;;;;;31.75;37.11;101389.50;5123354;27;20502;-75
2023/08/07 00:36:06;;;;;;;0.80;0.70;;;;;;;31.63;34.57;101377.59;5117152;27;20153;-77
2023/08/07 00:38:34;;;;;;;2.00;0.90;;;;;;;31.68;34.60;101384.47;5118013;27;20193;-76
2023/08/07 00:41:03;;;;;;;1.50;1.02;;;;;;;31.72;36.03;101387.84;5114813;27;20043;-76
2023/08/07 00:43:32;;;;;;;1.45;1.00;;;;;;;31.68;36.19;101384.47;5120306;27;20046;-77
2023/08/07 00:46:00;;;;;;;2.15;1.10;;;;;;;31.69;35.37;101391.56;5112033;28;20047;-77
2023/08/07 00:48:29;;;;;;;2.35;0.90;;;;;;;31.64;35.33;101395.41;5122186;27;20080;-76
2023/08/07 00:51:00;;;;;;;1.70;1.02;;;;;;;31.52;35.54;101386.19;5126425;27;20206;-77
2023/08/07 00:53:30;;;;;;;2.20;1.25;;;;;;;31.48;35.63;101384.59;5115738;27;20058;-76
2023/08/07 00:56:00;;;;;;;1.05;0.90;;;;;;;31.46;37.07;101381.97;5122385;27;20511;-79
2023/08/07 00:58:28;;;;;;;1.40;0.93;;;;;;;31.48;36.54;101389.94;5126510;27;20082;-76
2023/08/07 01:00:57;;;;;;;1.05;0.90;;;;;;;31.44;36.23;101386.53;5123886;27;20075;-77
2023/08/07 01:03:26;;;;;;;1.13;0.65;;;;;;;31.17;33.68;101375.31;5130774;27;20047;-79
2023/08/07 01:05:57;;;;;;;0.85;0.40;;;;;;;31.09;34.02;101367.66;5116148;27;20051;-77
2023/08/07 01:08:28;;;;;;;1.90;0.60;;;;;;;31.15;35.06;101379.00;5113634;27;20072;-77
2023/08/07 01:11:15;;;;;;;1.00;0.80;;;;;;;31.27;36.01;101381.09;5117013;27;20752;-77
2023/08/07 01:13:51;;;;;;;1.70;0.80;;;;;;;31.39;35.54;101369.81;5117956;27;20518;-78
2023/08/07 01:16:28;;;;;;;1.70;0.80;;;;;;;31.46;34.74;101373.94;5115739;27;20053;-77
2023/08/07 01:18:58;;;;;;;1.20;0.47;;;;;;;31.44;34.25;101370.47;5124300;27;20047;-76
2023/08/07 01:21:27;;;;;;;0.60;0.40;;;;;;;31.40;34.95;101373.34;5121741;27;20039;-74
2023/08/07 01:23:57;;;;;;;0.30;0.30;;;;;;;31.37;33.89;101371.69;5107717;28;20052;-77
2023/08/07 01:26:26;;;;;;;0.43;0.30;;;;;;;31.33;35.04;101367.41;5117398;27;20055;-77
2023/08/07 01:29:06;;;;;;;0.20;0.20;;;;;;;31.22;34.10;101377.75;5120436;27;20059;-76
2023/08/07 01:31:40;;;;;;;1.23;0.30;;;;;;;31.16;34.20;101370.06;5096538;28;20044;-78
2023/08/07 01:34:12;;;;;;;0.30;0.30;;;;;;;31.09;33.84;101373.00;5115574;27;20050;-79
2023/08/07 01:36:41;;;;;;;1.00;0.10;;;;;;;31.03;34.02;101367.94;5121292;27;20053;-78
2023/08/07 01:39:13;;;;;;;0.55;0.30;;;;;;;30.97;33.62;101370.03;5120880;27;20069;-77
2023/08/07 01:41:42;;;;;;;1.65;0.30;;;;;;;30.89;34.13;101370.38;5123174;27;20067;-78
2023/08/07 01:44:11;;;;;;;0.43;0.28;;;;;;;30.81;33.79;101368.03;5127660;27;20568;-76
2023/08/07 01:46:42;;;;;;;0.30;0.20;;;;;;;30.72;32.95;101360.44;5110877;27;20044;-79
2023/08/07 01:49:11;;;;;;;0.20;0.20;;;;;;;30.66;33.59;101368.72;5126691;27;20074;-78
2023/08/07 01:51:40;;;;;;;0.68;0.30;;;;;;;30.58;32.58;101371.75;5114936;27;20104;-76
2023/08/07 01:54:08;;;;;;;0.20;0.20;;;;;;;30.51;33.91;101375.59;5127056;27;20385;-77
2023/08/07 01:56:40;;;;;;;2.10;0.30;;;;;;;30.45;33.16;101374.09;5120701;27;20051;-78
2023/08/07 01:59:09;;;;;;;0.95;0.32;;;;;;;30.40;33.42;101377.91;5115456;27;20100;-77
2023/08/07 02:01:37;;;;;;;0.25;0.20;;;;;;;30.32;34.21;101380.88;5124073;27;20047;-78
2023/08/07 02:04:06;;;;;;;0.35;0.20;;;;;;;30.25;33.35;101382.91;5120402;27;20607;-77
2023/08/07 02:06:35;;;;;;;0.20;0.20;;;;;;;30.19;33.78;101385.88;5121313;27;20863;-75
2023/08/07 02:09:08;;;;;;;0.63;0.22;;;;;;;30.13;34.25;101379.94;5112182;27;20532;-76
2023/08/07 02:11:38;;;;;;;0.57;0.35;;;;;;;30.09;34.57;101383.66;5129498;27;20054;-78
2023/08/07 02:14:07;;;;;;;0.20;0.20;;;;;;;30.03;34.62;101391.00;5118090;27;20044;-77
2023/08/07 02:16:35;;;;;;;0.28;0.28;;;;;;;29.96;34.38;101389.50;5126620;27;20043;-77
2023/08/07 02:19:06;;;;;;;0.55;0.30;;;;;;;29.85;34.73;101397.09;5118747;27;20132;-76
2023/08/07 02:21:35;;;;;;;0.60;0.30;;;;;;;29.78;35.87;101395.56;5121045;27;20047;-77
2023/08/07 02:24:04;;;;;;;0.40;0.20;;;;;;;29.67;35.43;101396.00;5117162;27;20074;-76
2023/08/07 02:26:32;;;;;;;0.20;0.10;;;;;;;29.59;36.64;101395.41;5119034;27;20452;-76
2023/08/07 02:29:03;;;;;;;1.75;0.30;;;;;;;29.52;36.47;101407.25;5120802;27;20555;-76
2023/08/07 02:31:32;;;;;;;1.58;0.20;;;;;;;29.42;37.06;101404.09;5118457;27;20051;-77
2023/08/07 02:34:00;;;;;;;2.17;0.30;;;;;;;29.35;35.98;101406.13;5126358;27;20043;-77
2023/08/07 02:36:29;;;;;;;0.20;0.20;;;;;;;29.29;36.26;101410.81;5124691;27;20560;-76
2023/08/07 02:38:57;;;;;;;0.20;0.20;;;;;;;29.18;35.59;101411.22;5116884;27;20055;-77
2023/08/07 02:41:26;;;;;;;0.30;0.20;;;;;;;29.04;35.46;101404.59;5125614;27;20073;-75
2023/08/07 02:43:56;;;;;;;0.43;0.22;;;;;;;28.98;36.15;101409.31;5116277;27;20595;-75
2023/08/07 02:46:26;;;;;;;0.25;0.20;;;;;;;28.94;36.16;101408.53;5124004;27;20625;-77
2023/08/07 02:48:55;;;;;;;0.40;0.30;;;;;;;28.91;35.83;101415.75;5117316;27;20035;-78
2023/08/07 02:51:23;;;;;;;0.50;0.20;;;;;;;28.85;35.90;101414.19;5118213;27;20051;-76
2023/08/07 02:53:58;;;;;;;0.80;0.30;;;;;;;28.66;34.55;101407.81;5124059;27;20086;-76
2023/08/07 02:56:26;;;;;;;0.22;0.20;;;;;;;28.50;35.33;101413.66;5122155;27;20129;-76
2023/08/07 02:58:58;;;;;;;0.50;0.40;;;;;;;28.36;35.42;101413.25;5116698;27;20100;-78
2023/08/07 03:01:29;;;;;;;0.82;0.40;;;;;;;28.24;35.21;101413.66;5116424;27;20043;-79
2023/08/07 03:03:57;;;;;;;;;;;;;;;28.16;35.29;101409.47;5122957;27;20049;-77
2023/08/07 03:06:26;;;;;;;0.55;0.43;;;;;;;28.07;35.70;101404.44;5120195;27;19924;-76
2023/08/07 03:08:55;;;;;;;2.92;0.30;;;;;;;27.98;35.93;101407.41;5122195;27;20051;-77
2023/08/07 03:11:23;;;;;;;0.35;0.20;;;;;;;27.85;36.01;101404.28;5120794;27;20563;-77
2023/08/07 03:13:52;;;;;;;0.68;0.20;;;;;;;27.71;36.38;101406.47;5126592;27;20498;-76
2023/08/07 03:16:20;;;;;;;0.30;0.20;;;;;;;27.57;37.40;101405.13;5120989;27;20051;-78
2023/08/07 03:18:51;;;;;;;1.50;0.30;;;;;;;27.45;37.68;101412.63;5121266;27;20054;-78
2023/08/07 03:21:20;;;;;;;0.60;0.20;;;;;;;27.35;38.07;101407.59;5121570;27;20054;-78
2023/08/07 03:23:48;;;;;;;0.30;0.30;;;;;;;27.27;38.40;101416.69;5115748;27;20459;-78
2023/08/07 03:26:17;;;;;;;1.05;0.30;;;;;;;27.18;38.69;101420.44;5116882;27;20485;-76
2023/08/07 03:28:46;;;;;;;2.17;0.30;;;;;;;27.02;38.74;101416.50;5116459;27;20054;-79
2023/08/07 03:31:15;;;;;;;1.20;0.35;;;;;;;26.91;39.43;101422.97;5121761;27;20075;-82
2023/08/07 03:33:44;;;;;;;0.57;0.38;;;;;;;26.84;39.34;101426.72;5120600;27;20056;-79
2023/08/07 03:36:14;;;;;;;0.90;0.30;;;;;;;26.76;39.11;101426.06;5116922;27;20051;-77
2023/08/07 03:38:42;;;;;;;0.30;0.30;;;;;;;26.68;39.65;101438.66;5119487;27;20039;-78
2023/08/07 03:41:14;;;;;;;1.13;0.40;;;;;;;26.63;40.22;101448.53;5126847;27;20046;-81
2023/08/07 03:43:43;;;;;;;2.22;0.45;;;;;;;26.56;39.81;101450.47;5129457;27;20058;-78
2023/08/07 03:46:11;;;;;;;0.80;0.50;;;;;;;26.47;40.65;101462.16;5118781;27;20172;-75
2023/08/07 03:48:43;;;;;;;0.80;0.40;;;;;;;26.39;40.02;101452.66;5127788;27;20043;-76
2023/08/07 03:51:18;;;;;;;1.83;0.50;;;;;;;26.33;40.10;101451.03;5112164;27;20513;-76
2023/08/07 03:53:46;;;;;;;1.00;0.70;;;;;;;26.25;40.76;101455.66;5114268;27;20067;-76
2023/08/07 03:56:15;;;;;;;1.15;0.40;;;;;;;26.19;41.06;101450.50;5120798;27;20050;-81
2023/08/07 03:58:43;;;;;;;1.00;0.50;;;;;;;26.10;41.04;101452.47;5121630;27;20066;-78
2023/08/07 04:01:12;;;;;;;0.38;0.30;;;;;;;26.04;41.76;101449.09;5115710;27;20054;-77
2023/08/07 04:03:41;;;;;;;1.02;0.32;;;;;;;25.96;42.27;101454.59;5118038;27;20077;-76
2023/08/07 04:06:12;;;;;;;1.13;0.20;;;;;;;25.90;42.47;101454.72;5122514;27;20035;-76
2023/08/07 04:08:43;;;;;;;0.40;0.30;;;;;;;25.85;42.46;101451.28;5138598;27;20555;-78
2023/08/07 04:11:11;;;;;;;1.40;0.60;;;;;;;25.79;42.81;101468.19;5114380;27;20063;-77
2023/08/07 04:13:40;;;;;;;0.60;0.30;;;;;;;25.71;42.30;101471.00;5108434;27;20556;-77
2023/08/07 04:16:09;;;;;;;2.35;0.50;;;;;;;25.67;43.21;101455.22;5113975;27;20046;-78
2023/08/07 04:18:38;;;;;;;3.42;0.40;;;;;;;25.62;43.42;101468.56;5117787;27;20142;-75
2023/08/07 04:21:06;;;;;;;1.10;0.40;;;;;;;25.59;43.36;101468.63;5113870;27;20048;-79
2023/08/07 04:23:35;;;;;;;0.70;0.30;;;;;;;25.49;42.78;101464.44;5125310;27;20124;-79
2023/08/07 04:26:05;;;;;;;1.67;0.30;;;;;;;25.43;43.42;101477.81;5116678;27;20099;-77
2023/08/07 04:28:49;;;;;;;1.67;0.50;;;;;;;25.38;43.37;101471.72;5104164;27;20617;-79
2023/08/07 04:31:17;;;;;;;0.60;0.35;;;;;;;25.35;44.40;101483.25;5097559;28;20059;-76
2023/08/07 04:33:48;;;;;;;1.08;0.32;;;;;;;25.33;44.62;101473.59;5098296;28;20127;-74
2023/08/07 04:36:20;;;;;;;1.00;0.45;;;;;;;25.27;44.03;101469.31;5106090;28;20051;-76
2023/08/07 04:38:48;;;;;;;;;;;;;;;25.18;43.65;101491.56;5103885;28;20051;-78
2023/08/07 04:41:19;;;;;;;0.40;0.40;;;;;;;25.09;44.52;101481.09;5103735;28;20521;-77
2023/08/07 04:43:48;;;;;;;0.25;0.20;;;;;;;25.03;44.91;101487.38;5092687;28;20048;-77
2023/08/07 04:46:17;;;;;;;0.50;0.30;;;;;;;24.95;45.50;101488.44;5100074;28;20159;-77
2023/08/07 04:48:47;;;;;;;1.50;0.50;;;;;;;24.92;45.14;101489.34;5100895;28;20079;-76
2023/08/07 04:51:16;;;;;;;2.35;0.50;;;;;;;24.83;45.12;101479.81;5106653;28;20043;-76
2023/08/07 04:53:50;;;;;;;1.45;0.43;;;;;;;24.68;45.48;101480.09;5100843;28;20047;-74
2023/08/07 04:56:21;;;;;;;0.82;0.40;;;;;;;24.59;46.06;101483.78;5104176;28;20048;-73
2023/08/07 04:58:49;;;;;;;0.40;0.40;;;;;;;24.44;45.88;101484.88;5100004;28;20499;-74
2023/08/07 05:01:18;;;;;;;1.08;0.40;;;;;;;24.34;46.20;101483.28;5094014;28;20650;-74
2023/08/07 05:03:47;;;;;;;2.00;0.47;;;;;;;24.23;46.50;101485.22;5099368;28;20945;-76
2023/08/07 05:06:15;;;;;;;1.17;0.50;;;;;;;24.14;46.98;101488.00;5104869;28;20054;-77
2023/08/07 05:08:44;;;;;;;1.05;0.40;;;;;;;24.11;47.19;101482.75;5104737;28;20056;-74
2023/08/07 05:11:12;;;;;;;0.63;0.35;;;;;;;24.08;47.46;101477.53;5099566;28;20036;-74
2023/08/07 05:13:43;;;;;;;1.40;0.55;;;;;;;24.09;46.78;101479.25;5104021;28;20113;-74
2023/08/07 05:16:11;;;;;;;0.63;0.40;;;;;;;24.06;47.72;101481.97;5103695;28;20044;-74
2023/08/07 05:18:40;;;;;;;0.63;0.50;;;;;;;23.97;47.26;101488.25;5104320;27;20489;-75
2023/08/07 05:21:08;;;;;;;0.77;0.40;;;;;;;23.87;47.74;101476.94;5111279;27;20557;-74
2023/08/07 05:23:37;;;;;;;0.68;0.30;;;;;;;23.75;48.09;101490.31;5098146;28;20402;-75
2023/08/07 05:26:06;;;;;;;1.75;0.30;;;;;;;23.65;48.11;101484.25;5106191;27;20052;-76
2023/08/07 05:28:43;;;;;;;0.50;0.40;;;;;;;23.59;48.83;101490.50;5103690;27;20047;-75
2023/08/07 05:31:12;;;;;;;0.30;0.30;;;;;;;23.56;49.14;101495.81;5107138;27;20070;-75
2023/08/07 05:33:40;;;;;;;0.80;0.43;;;;;;;23.51;49.23;101492.34;5107496;27;20054;-76
2023/08/07 05:36:09;;;;;;;1.65;0.55;;;;;;;23.47;48.91;101490.63;5117560;27;20047;-76
2023/08/07 05:38:38;;;;;;;1.42;0.40;;;;;;;23.45;49.32;101492.41;5123018;27;20047;-76
2023/08/07 05:41:10;;;;;;;0.82;0.50;;;;;;;23.41;49.32;101496.00;5123435;27;20052;-77
2023/08/07 05:43:38;;;;;;;2.47;0.50;;;;;;;23.35;49.28;101499.59;5121538;27;20068;-76
2023/08/07 05:46:09;;;;;;;1.42;0.40;;;;;;;23.31;49.89;101502.28;5129902;27;20051;-76
2023/08/07 05:48:37;;;;;;;1.55;0.40;;;;;;;23.26;50.00;101506.75;5124623;27;20131;-75
2023/08/07 05:51:06;;;;;;;0.73;0.50;;;;;;;23.18;50.16;101499.78;5123442;27;20380;-78
2023/08/07 05:53:36;;;;;;;0.95;0.43;;;;;;;23.12;50.90;101515.69;5128789;27;20101;-78
2023/08/07 05:56:05;;;;;;;1.55;0.40;;;;;;;23.08;51.66;101506.03;5119992;27;20051;-77
2023/08/07 05:58:34;;;;;;;0.82;0.50;;;;;;;23.03;52.30;101499.94;5124232;27;20686;-77
2023/08/07 06:01:03;;;;;;;1.00;0.38;;;;;;;23.02;52.95;101494.66;5122333;27;20049;-77
2023/08/07 06:03:36;;;;;;;0.65;0.50;;;;;;;22.97;53.44;101492.03;5126788;27;20054;-77
2023/08/07 06:06:05;;;;;;;2.15;0.52;;;;;;;22.96;53.25;101492.94;5127692;27;20138;-77
2023/08/07 06:08:34;;;;;;;0.65;0.40;;;;;;;22.92;53.61;101485.94;5123442;27;20071;-78
2023/08/07 06:11:04;;;;;;;0.50;0.40;;;;;;;22.87;53.82;101493.03;5122568;27;20051;-78
2023/08/07 06:13:36;;;;;;;2.20;0.50;;;;;;;22.77;54.50;101486.97;5119548;27;20054;-76
2023/08/07 06:16:04;;;;;;;1.50;0.50;;;;;;;22.67;54.83;101474.75;5122101;27;20590;-78
2023/08/07 06:18:35;;;;;;;1.73;0.30;;;;;;;22.70;54.96;101488.81;5123729;27;20057;-77
2023/08/07 06:21:06;;;;;;;1.95;0.52;;;;;;;22.67;55.60;101491.44;5125898;27;20059;-77
2023/08/07 06:23:38;;;;;;;0.57;0.30;;;;;;;22.64;55.30;101502.03;5122170;27;20050;-77
2023/08/07 06:26:08;;;;;;;0.50;0.40;;;;;;;22.58;56.69;101505.59;5129589;27;20648;-76
2023/08/07 06:28:37;;;;;;;0.90;0.40;;;;;;;22.49;56.92;101507.44;5125807;27;20057;-77
2023/08/07 06:31:08;;;;;;;1.38;0.38;;;;;;;22.47;57.50;101510.09;5128336;27;20563;-76
2023/08/07 06:33:41;;;;;;;0.70;0.43;;;;;;;22.46;57.53;101507.47;5123646;27;20099;-76
2023/08/07 06:36:10;;;;;;;0.98;0.40;;;;;;;22.48;57.48;101510.97;5126163;27;20066;-77
2023/08/07 06:38:39;;;;;;;0.80;0.40;;;;;;;22.50;57.80;101503.91;5122933;27;20146;-75
2023/08/07 06:41:07;;;;;;;0.80;0.35;;;;;;;22.48;57.82;101517.09;5125408;27;20042;-76
2023/08/07 06:43:38;;;;;;;1.27;0.38;;;;;;;22.45;58.57;101526.78;5122344;27;20130;-77
2023/08/07 06:46:07;;;;;;;0.32;0.30;;;;;;;22.43;59.05;101524.19;5121392;27;20046;-77
2023/08/07 06:48:37;;;;;;;0.75;0.30;;;;;;;22.41;58.59;101525.94;5128447;27;20054;-78
2023/08/07 06:51:05;;;;;;;0.50;0.40;;;;;;;22.39;59.11;101519.81;5122278;27;20142;-78
2023/08/07 06:53:34;;;;;;;0.60;0.50;;;;;;;22.35;59.35;101518.94;5118912;27;20043;-78
2023/08/07 06:56:05;;;;;;;1.77;0.43;;;;;;;22.31;60.19;101517.25;5125349;27;20054;-77
2023/08/07 06:58:34;;;;;;;0.52;0.40;;;;;;;22.22;60.55;101525.22;5125560;27;20043;-76
2023/08/07 07:01:02;;;;;;;0.20;0.20;;;;;;;22.16;61.02;101525.22;5124999;27;20052;-77
2023/08/07 07:03:31;;;;;;;0.30;0.22;;;;;;;22.17;61.34;101529.59;5123031;27;20043;-77
2023/08/07 07:06:02;;;;;;;0.80;0.40;;;;;;;22.16;61.78;101541.03;5121435;27;20050;-77
2023/08/07 07:08:30;;;;;;;0.80;0.30;;;;;;;22.13;62.18;101556.88;5125261;27;20058;-77
2023/08/07 07:10:59;;;;;;;0.20;0.20;;;;;;;22.09;62.10;101549.84;5121027;27;20051;-78
2023/08/07 07:13:28;;;;;;;0.15;0.15;;;;;;;22.03;62.96;101534.94;5124313;27;20059;-74
2023/08/07 07:15:57;;;;;;;0.20;0.20;;;;;;;21.96;63.36;101531.44;5122776;27;20055;-75
2023/08/07 07:18:27;;;;;;;0.17;0.10;;;;;;;21.95;62.81;101536.75;5124906;27;20047;-77
2023/08/07 07:21:01;;;;;;;0.10;0.10;;;;;;;21.92;63.13;101529.75;5126910;27;20051;-78
2023/08/07 07:23:30;;;;;;;0.25;0.25;;;;;;;21.91;63.43;101520.06;5126887;27;20079;-77
2023/08/07 07:25:58;;;;;;;0.05;0.05;;;;;;;21.91;64.34;101511.28;5121549;27;20078;-74
2023/08/07 07:28:27;;;;;;;0.17;0.17;;;;;;;21.79;64.62;101488.53;5118963;27;20489;-77
2023/08/07 07:30:55;;;;;;;0.30;0.20;;;;;;;21.90;64.20;101494.63;5123350;27;20047;-77
2023/08/07 07:33:24;;;;;;;0.75;0.30;;;;;;;21.94;65.00;101491.09;5127498;27;20054;-77
2023/08/07 07:35:52;;;;;;;0.75;0.25;;;;;;;22.00;64.66;101492.81;5123034;27;20558;-76
2023/08/07 07:38:23;;;;;;;1.60;0.30;;;;;;;22.04;64.05;101494.53;5120251;27;20103;-77
2023/08/07 07:40:53;;;;;;;1.23;0.30;;;;;;;22.05;64.38;101495.41;5125521;27;20054;-76
2023/08/07 07:43:21;;;;;;;1.10;0.20;;;;;;;22.04;64.12;101496.31;5120865;27;20075;-75
2023/08/07 07:45:50;;;;;;;0.60;0.30;;;;;;;22.02;64.56;101485.75;5122322;27;20051;-76
2023/08/07 07:48:18;;;;;;;1.10;0.30;;;;;;;21.98;64.90;101488.44;5135891;27;20058;-75
2023/08/07 07:50:47;;;;;;;0.55;0.25;;;;;;;21.91;65.20;101496.34;5124048;27;20078;-76
2023/08/07 07:53:15;;;;;;;0.93;0.20;;;;;;;21.87;65.10;101499.88;5124285;27;20138;-76
2023/08/07 07:55:49;;;;;;;0.22;0.20;;;;;;;21.85;65.17;101504.31;5126447;27;20043;-75
2023/08/07 07:58:18;;;;;;;1.55;0.20;;;;;;;21.83;64.95;101508.72;5124583;27;20055;-76
2023/08/07 08:00:46;;;;;;;0.75;0.47;;;;;;;21.76;65.13;101501.69;5117326;27;20050;-76
2023/08/07 08:03:15;;;;;;;0.30;0.20;;;;;;;21.79;65.88;101514.88;5121779;27;20039;-76
2023/08/07 08:05:44;;;;;;;0.10;0.10;;;;;;;21.77;66.23;101511.38;5121921;27;20047;-78
2023/08/07 08:08:12;;;;;;;0.20;0.20;;;;;;;21.73;66.14;101509.63;5127875;27;20047;-77
2023/08/07 08:10:41;;;;;;;0.13;0.13;;;;;;;21.72;65.72;101510.53;5121706;27;20070;-77
2023/08/07 08:13:13;;;;;;;1.30;0.20;;;;;;;21.72;65.51;101508.75;5123279;27;20043;-76
2023/08/07 08:15:44;;;;;;;0.52;0.10;;;;;;;21.72;66.09;101497.34;5120585;27;20059;-76
2023/08/07 08:18:13;;;;;;;0.23;0.20;;;;;;;21.68;66.30;101490.34;5123810;27;20055;-76
2023/08/07 08:20:41;;;;;;;0.75;0.22;;;;;;;21.68;67.52;101474.53;5124030;27;20047;-76
2023/08/07 08:23:10;;;;;;;0.17;0.10;;;;;;;21.68;67.40;101464.00;5119322;27;20521;-75
2023/08/07 08:25:41;;;;;;;2.05;0.30;;;;;;;21.69;67.38;101476.28;5123294;27;20138;-76
2023/08/07 08:28:18;;;;;;;0.80;0.20;;;;;;;21.68;67.10;101480.69;5121201;27;20079;-76
2023/08/07 08:30:47;;;;;;;1.98;0.50;;;;;;;21.65;67.90;101471.94;5118425;27;20043;-77
2023/08/07 08:33:17;;;;;;;0.43;0.40;;;;;;;21.60;67.92;101466.69;5118678;27;20096;-75
2023/08/07 08:35:46;;;;;;;0.40;0.30;;;;;;;21.54;68.28;101464.94;5120297;27;20221;-76
2023/08/07 08:38:16;;;;;;;0.68;0.38;;;;;;;21.51;68.37;101480.75;5123688;27;20550;-76
2023/08/07 08:40:46;;;;;;;0.13;0.13;;;;;;;21.49;68.36;101474.63;5116568;27;20051;-76
2023/08/07 08:43:16;;;;;;;0.40;0.30;;;;;;;21.49;67.68;101465.84;5123981;27;20047;-77
2023/08/07 08:45:46;;;;;;;0.40;0.25;;;;;;;21.47;68.26;101464.97;5123929;27;20629;-76
2023/08/07 08:48:23;;;;;;;0.65;0.40;;;;;;;21.38;69.26;101465.84;5122082;27;20053;-76
2023/08/07 08:50:52;;;;;;;1.08;0.30;;;;;;;21.31;69.44;101464.13;5123394;27;20058;-76
2023/08/07 08:53:23;;;;;;;0.57;0.30;;;;;;;21.22;69.77;101469.44;5126708;27;20035;-77
2023/08/07 08:55:58;;;;;;;0.30;0.30;;;;;;;21.19;70.79;101467.69;5131803;27;20053;-76
2023/08/07 08:58:27;;;;;;;1.65;0.30;;;;;;;21.12;70.73;101481.75;5126698;27;20053;-77
2023/08/07 09:00:57;;;;;;;1.10;0.35;;;;;;;21.10;70.87;101479.09;5126110;27;20054;-74
2023/08/07 09:03:26;;;;;;;0.15;0.15;;;;;;;21.08;70.69;101472.97;5130236;27;20255;-76
2023/08/07 09:06:03;;;;;;;0.22;0.20;;;;;;;21.09;70.80;101476.47;5128873;27;20409;-76
2023/08/07 09:08:33;;;;;;;0.10;0.10;;;;;;;21.01;71.70;101463.34;5122023;27;20043;-76
2023/08/07 09:11:02;;;;;;;0.20;0.20;;;;;;;21.07;71.85;101473.88;5121300;27;20066;-75
2023/08/07 09:13:30;;;;;;;0.10;0.10;;;;;;;21.09;71.74;101472.06;5125172;27;20043;-77
2023/08/07 09:16:03;;;;;;;0.93;0.32;;;;;;;21.07;71.40;101450.19;5122455;27;20238;-75
2023/08/07 09:18:32;;;;;;;0.52;0.30;;;;;;;21.17;70.70;101473.84;5123574;27;20071;-76
2023/08/07 09:21:01;;;;;;;0.20;0.17;;;;;;;21.16;70.54;101458.91;5121078;27;20066;-76
2023/08/07 09:23:30;;;;;;;1.75;0.30;;;;;;;21.16;70.34;101457.16;5130859;27;20131;-76
2023/08/07 09:26:03;;;;;;;0.90;0.10;;;;;;;21.17;70.52;101458.06;5126406;27;20043;-76
2023/08/07 09:28:33;;;;;;;0.10;0.10;;;;;;;21.12;70.48;101458.06;5124355;27;20054;-76
2023/08/07 09:31:03;;;;;;;0.20;0.10;;;;;;;21.16;70.31;101475.56;5122987;27;20503;-77
2023/08/07 09:33:32;;;;;;;0.25;0.10;;;;;;;21.15;70.43;101467.69;5127703;27;20405;-77
2023/08/07 09:36:04;;;;;;;0.55;0.20;;;;;;;21.13;70.77;101454.53;5124486;27;20707;-76
2023/08/07 09:38:33;;;;;;;0.22;0.20;;;;;;;21.11;71.13;101453.66;5122431;27;20162;-76
2023/08/07 09:41:03;;;;;;;0.30;0.20;;;;;;;21.06;71.46;101453.69;5132726;27;20060;-78
2023/08/07 09:43:35;;;;;;;0.73;0.28;;;;;;;21.05;71.50;101457.19;5123156;27;20052;-77
2023/08/07 09:46:08;;;;;;;;;;;;;;;21.03;71.45;101458.09;5124621;27;20047;-77
2023/08/07 09:48:42;;;;;;;0.40;0.30;;;;;;;20.98;71.12;101460.72;5125506;27;19920;-76
2023/08/07 09:51:18;;;;;;;1.02;0.40;;;;;;;20.97;71.95;101456.34;5127882;27;20044;-77
2023/08/07 09:53:48;;;;;;;0.32;0.25;;;;;;;20.95;72.46;101439.66;5122287;27;20051;-77
2023/08/07 09:56:17;;;;;;;0.10;0.10;;;;;;;20.90;72.87;101441.44;5131974;27;20560;-77
2023/08/07 09:58:49;;;;;;;0.20;0.13;;;;;;;20.87;72.80;101446.72;5120643;27;20044;-77
2023/08/07 10:01:22;;;;;;;0.30;0.20;;;;;;;20.83;72.69;101445.84;5123215;27;20090;-77
2023/08/07 10:03:51;;;;;;;0.47;0.13;;;;;;;20.83;73.28;101447.59;5123427;27;20050;-76
2023/08/07 10:06:21;;;;;;;0.05;0.05;;;;;;;20.83;72.85;101444.97;5121869;27;20047;-76
2023/08/07 10:08:58;;;;;;;1.77;0.40;;;;;;;20.81;73.74;101420.44;5121307;27;20046;-75
2023/08/07 10:11:27;;;;;;;0.28;0.20;;;;;;;20.79;73.60;101437.97;5122768;27;20558;-77
2023/08/07 10:13:57;;;;;;;0.52;0.20;;;;;;;20.76;73.52;101448.50;5124250;27;20051;-77
2023/08/07 10:16:29;;;;;;;0.17;0.13;;;;;;;20.71;74.24;101438.84;5122627;27;20096;-76
2023/08/07 10:18:57;;;;;;;0.22;0.20;;;;;;;20.68;74.73;101424.81;5127555;27;20101;-76
2023/08/07 10:21:27;;;;;;;0.20;0.10;;;;;;;20.65;76.01;101416.94;5122702;27;20097;-74
2023/08/07 10:23:57;;;;;;;0.75;0.32;;;;;;;20.59;75.64;101425.72;5117211;27;20047;-76
2023/08/07 10:26:27;;;;;;;0.20;0.20;;;;;;;20.56;75.66;101436.22;5125068;27;20039;-76
2023/08/07 10:28:56;;;;;;;0.38;0.30;;;;;;;20.55;75.32;101431.84;5125442;27;20184;-75
2023/08/07 10:31:28;;;;;;;1.20;0.30;;;;;;;20.55;75.01;101434.47;5125117;27;20540;-77
2023/08/07 10:33:57;;;;;;;1.10;0.30;;;;;;;20.55;75.21;101441.44;5121740;27;20050;-75
2023/08/07 10:36:33;;;;;;;0.30;0.28;;;;;;;20.54;75.01;101458.97;5125000;27;20047;-77
2023/08/07 10:39:09;;;;;;;1.00;0.20;;;;;;;20.52;75.22;101452.84;5127130;27;20046;-76
2023/08/07 10:41:41;;;;;;;0.20;0.10;;;;;;;20.53;75.53;101444.09;5126364;27;20464;-77
2023/08/07 10:44:20;;;;;;;0.98;0.20;;;;;;;20.51;75.65;101438.84;5122581;27;20070;-77
2023/08/07 10:46:55;;;;;;;0.65;0.30;;;;;;;20.46;76.61;101435.34;5126676;27;20073;-76
2023/08/07 10:49:34;;;;;;;1.75;0.40;;;;;;;20.40;76.71;101442.34;5123416;27;20039;-77
2023/08/07 10:52:11;;;;;;;0.20;0.20;;;;;;;20.43;76.05;101451.13;5118350;27;20109;-77
2023/08/07 10:54:43;;;;;;;2.35;0.28;;;;;;;20.43;76.62;101451.13;5132287;27;20047;-76
2023/08/07 10:57:14;;;;;;;0.20;0.20;;;;;;;20.38;77.31;101447.59;5129106;27;20063;-76
2023/08/07 10:59:50;;;;;;;0.23;0.23;;;;;;;20.29;77.63;101430.09;5125091;27;20533;-77
2023/08/07 11:02:27;;;;;;;0.57;0.32;;;;;;;20.32;78.13;101439.72;5122641;27;20070;-77
2023/08/07 11:04:56;;;;;;;0.38;0.30;;;;;;;20.27;78.19;101431.84;5119086;27;20055;-77
2023/08/07 11:07:28;;;;;;;0.20;0.20;;;;;;;20.27;78.08;101444.97;5120070;27;20503;-76
2023/08/07 11:09:58;;;;;;;0.45;0.38;;;;;;;20.28;77.98;101441.47;5124670;27;20081;-76
2023/08/07 11:12:27;;;;;;;0.70;0.38;;;;;;;20.32;78.05;101436.19;5117483;27;20040;-76
2023/08/07 11:14:57;;;;;;;0.50;0.20;;;;;;;20.30;77.57;101431.84;5116009;27;20067;-77
2023/08/07 11:17:29;;;;;;;1.13;0.30;;;;;;;20.32;78.07;101429.22;5124506;27;20046;-78
2023/08/07 11:19:58;;;;;;;0.40;0.20;;;;;;;20.27;78.65;101429.22;5125404;27;20079;-75
2023/08/07 11:22:27;;;;;;;0.73;0.20;;;;;;;20.21;79.13;101429.22;5124271;27;20322;-77
2023/08/07 11:24:55;;;;;;;0.55;0.25;;;;;;;20.18;78.61;101439.72;5121752;27;20039;-76
2023/08/07 11:27:24;;;;;;;0.08;0.08;;;;;;;20.18;78.67;101433.56;5132754;27;20054;-76
2023/08/07 11:29:53;;;;;;;0.28;0.15;;;;;;;20.17;78.59;101427.44;5122077;27;20096;-76
2023/08/07 11:32:26;;;;;;;0.10;0.10;;;;;;;20.19;78.74;101430.09;5119238;27;20549;-77
2023/08/07 11:34:56;;;;;;;0.35;0.20;;;;;;;20.16;78.34;101425.72;5126922;27;20649;-76
2023/08/07 11:37:25;;;;;;;1.80;0.32;;;;;;;20.15;78.38;101431.81;5127313;27;20492;-77
2023/08/07 11:39:53;;;;;;;0.63;0.50;;;;;;;20.16;78.61;101428.34;5119536;27;20063;-76